Time;durP1;ratioP1;P1;durP2;ratioP2;P2;SDS_P1;SDS_P2;PMS_P1;PMS_P2;Temp;Humidity;BMP_temperature;BMP_pressure;BME280_temperature;BME280_humidity;BME280_pressure;Samples;Min_cycle;Max_cycle;Signal;HPM_P1;HPM_P2
2022/06/16 04:05:26;;;;;;;3.22;2.92;;;;;;;15.65;79.18;100707.53;5660658;28;20128;-84
2022/06/16 04:08:31;;;;;;;3.87;3.17;;;;;;;15.71;78.52;100713.22;5329749;33;34048;-84
2022/06/16 04:11:34;;;;;;;3.28;2.97;;;;;;;15.82;78.10;100718.03;5336290;33;34282;-84
2022/06/16 04:14:37;;;;;;;6.30;3.10;;;;;;;15.82;78.38;100712.59;5324721;33;34623;-82
2022/06/16 04:17:40;;;;;;;4.05;2.90;;;;;;;15.91;77.88;100716.81;5324839;33;34892;-85
2022/06/16 04:20:46;;;;;;;4.15;2.97;;;;;;;16.01;77.25;100719.97;5324770;33;34949;-85
2022/06/16 04:23:50;;;;;;;4.68;3.10;;;;;;;16.07;77.50;100718.31;5325029;33;34099;-84
2022/06/16 04:26:54;;;;;;;4.05;2.87;;;;;;;16.20;77.10;100718.34;5324815;33;34181;-85
2022/06/16 04:29:56;;;;;;;5.20;3.15;;;;;;;16.24;77.27;100716.06;5324845;33;34002;-85
2022/06/16 04:33:00;;;;;;;4.07;3.22;;;;;;;16.35;76.03;100722.75;5324892;33;35027;-84
2022/06/16 04:36:05;;;;;;;4.57;2.97;;;;;;;16.39;74.87;100719.41;5324661;33;34859;-85
2022/06/16 04:39:09;;;;;;;4.68;3.65;;;;;;;16.48;75.42;100720.88;5324431;33;34905;-84
2022/06/16 04:42:12;;;;;;;3.67;2.97;;;;;;;16.58;74.13;100716.91;5310721;33;33605;-85
2022/06/16 04:45:16;;;;;;;4.10;3.40;;;;;;;16.76;74.21;100725.31;5324705;33;34510;-85
2022/06/16 04:48:19;;;;;;;4.28;3.33;;;;;;;16.94;73.66;100714.63;5324427;33;34086;-85
2022/06/16 04:51:23;;;;;;;10.18;3.67;;;;;;;17.13;72.88;100707.47;5324854;33;34549;-82
2022/06/16 04:54:25;;;;;;;4.75;3.10;;;;;;;17.21;70.93;100711.84;5324679;33;34245;-86
2022/06/16 04:57:33;;;;;;;4.05;3.03;;;;;;;17.34;70.72;100711.78;5324874;33;33952;-88
2022/06/16 05:00:39;;;;;;;4.65;2.90;;;;;;;17.51;69.79;100716.78;5324246;33;34584;-89
2022/06/16 05:04:17;;;;;;;6.30;3.20;;;;;;;17.69;68.95;100703.28;5313549;33;33753;-84
2022/06/16 05:07:20;;;;;;;3.25;2.95;;;;;;;17.93;68.48;100700.91;5310145;33;33342;-85
2022/06/16 05:10:23;;;;;;;4.15;2.92;;;;;;;18.19;67.65;100697.16;5324288;33;33707;-85
2022/06/16 05:13:29;;;;;;;4.20;2.83;;;;;;;18.28;64.07;100702.16;5324356;33;33925;-85
2022/06/16 05:16:32;;;;;;;3.75;2.50;;;;;;;18.50;63.60;100702.59;5324390;33;34752;-85
2022/06/16 05:19:35;;;;;;;2.75;2.40;;;;;;;18.61;63.62;100706.50;5324559;33;33747;-85
2022/06/16 05:22:40;;;;;;;3.00;2.70;;;;;;;18.69;63.10;100702.66;5323952;33;33712;-85
2022/06/16 05:25:45;;;;;;;2.50;2.33;;;;;;;18.78;61.68;100704.09;5324138;33;34036;-84
2022/06/16 05:28:53;;;;;;;3.20;2.75;;;;;;;18.94;59.80;100699.94;5324475;33;34762;-84
2022/06/16 05:31:57;;;;;;;3.37;2.58;;;;;;;19.18;61.21;100696.31;5323790;33;34029;-84
2022/06/16 05:35:03;;;;;;;5.35;2.72;;;;;;;19.36;58.93;100698.22;5296656;33;33518;-83
2022/06/16 05:38:07;;;;;;;3.17;2.40;;;;;;;19.48;59.82;100696.41;5288718;33;35042;-84
2022/06/16 05:41:17;;;;;;;2.60;2.40;;;;;;;19.67;59.21;100702.69;5288375;33;33946;-84
2022/06/16 05:44:20;;;;;;;3.85;2.47;;;;;;;19.74;58.01;100699.03;5288276;33;34159;-84
2022/06/16 05:47:23;;;;;;;2.53;2.33;;;;;;;19.83;58.26;100700.38;5288783;33;33909;-84
2022/06/16 05:50:27;;;;;;;2.65;2.40;;;;;;;19.92;58.80;100696.28;5300001;33;33806;-84
2022/06/16 05:53:30;;;;;;;3.33;2.33;;;;;;;20.00;57.45;100695.09;5302476;33;34206;-84
2022/06/16 05:56:35;;;;;;;4.35;2.67;;;;;;;19.94;57.86;100699.59;5289445;33;35204;-84
2022/06/16 05:59:38;;;;;;;2.50;2.30;;;;;;;20.13;57.06;100693.03;5278140;33;34272;-84
2022/06/16 06:02:42;;;;;;;3.80;2.67;;;;;;;20.30;57.27;100700.53;5298663;33;33642;-84
2022/06/16 06:05:45;;;;;;;2.80;2.60;;;;;;;20.54;57.17;100699.56;5288791;33;33912;-84
2022/06/16 06:16:25;;;;;;;2.50;2.30;;;;;;;20.83;55.50;100695.06;5298014;33;34443;-88
2022/06/16 06:19:24;;;;;;;2.45;2.25;;;;;;;21.06;54.94;100696.97;5294466;33;34890;-84
2022/06/16 06:22:27;;;;;;;3.12;2.33;;;;;;;21.21;54.48;100693.72;5291892;33;34512;-84
2022/06/16 06:25:32;;;;;;;3.83;2.42;;;;;;;21.27;53.20;100686.47;5296894;33;34761;-83
2022/06/16 06:28:35;;;;;;;3.10;2.45;;;;;;;21.47;54.67;100686.09;5305632;33;34155;-84
2022/06/16 06:31:37;;;;;;;4.57;2.60;;;;;;;21.59;54.16;100684.16;5317541;33;35439;-84
2022/06/16 06:34:41;;;;;;;3.47;2.80;;;;;;;21.63;52.76;100679.81;5308964;33;34117;-84
2022/06/16 06:37:44;;;;;;;4.25;2.62;;;;;;;21.84;53.19;100675.56;5323972;33;34738;-83
2022/06/16 06:40:47;;;;;;;3.15;2.65;;;;;;;22.10;51.44;100687.00;5326547;33;34831;-82
2022/06/16 06:43:50;;;;;;;4.03;2.47;;;;;;;22.19;50.55;100691.03;5315343;33;35398;-83
2022/06/16 06:46:52;;;;;;;3.28;2.58;;;;;;;22.16;51.07;100695.06;5301722;33;34480;-84
2022/06/16 06:49:56;;;;;;;3.53;2.17;;;;;;;22.32;49.68;100693.47;5297166;33;33796;-83
2022/06/16 06:52:59;;;;;;;2.55;2.22;;;;;;;22.39;50.22;100690.56;5294401;33;34955;-83
2022/06/16 06:56:03;;;;;;;2.40;2.25;;;;;;;22.66;49.54;100692.66;5304909;33;34113;-84
2022/06/16 06:59:12;;;;;;;2.62;2.42;;;;;;;22.78;49.59;100685.16;5305333;33;33935;-83
2022/06/16 07:02:16;;;;;;;2.72;2.40;;;;;;;22.99;49.21;100686.31;5324225;33;37355;-84
2022/06/16 07:05:19;;;;;;;3.17;2.67;;;;;;;23.26;47.79;100686.44;5343787;33;35228;-84
2022/06/16 07:08:22;;;;;;;2.50;2.30;;;;;;;23.45;47.47;100686.94;5323371;33;35264;-83
2022/06/16 07:11:25;;;;;;;2.30;2.10;;;;;;;23.71;46.41;100683.44;5314005;33;34306;-82
2022/06/16 07:14:30;;;;;;;2.67;1.95;;;;;;;23.70;46.57;100680.97;5301276;33;34194;-83
2022/06/16 07:17:33;;;;;;;5.03;2.37;;;;;;;23.83;46.85;100676.97;5312483;33;33934;-84
2022/06/16 07:20:36;;;;;;;3.92;2.70;;;;;;;23.81;46.46;100685.47;5308546;33;34550;-85
2022/06/16 07:23:47;;;;;;;2.62;2.42;;;;;;;23.89;45.83;100676.75;5305522;33;32812;-85
2022/06/16 07:26:50;;;;;;;2.05;1.95;;;;;;;24.04;45.19;100669.75;5300151;33;34835;-86
2022/06/16 07:29:52;;;;;;;2.90;2.33;;;;;;;24.30;45.21;100668.88;5310379;33;35508;-89
2022/06/16 07:32:56;;;;;;;3.05;2.72;;;;;;;24.30;44.41;100673.56;5307758;33;34505;-90
2022/06/16 07:35:59;;;;;;;4.60;2.33;;;;;;;24.43;43.99;100673.16;5300274;33;34542;-89
2022/06/16 07:39:04;;;;;;;4.18;2.30;;;;;;;24.63;44.01;100667.81;5307023;33;33683;-90
2022/06/16 07:42:08;;;;;;;2.60;2.10;;;;;;;24.70;43.17;100670.34;5302234;33;34018;-86
2022/06/16 07:45:13;;;;;;;3.92;2.33;;;;;;;24.98;43.27;100669.16;5306623;33;33926;-86
2022/06/16 07:48:17;;;;;;;2.97;1.90;;;;;;;25.23;42.56;100667.66;5295566;33;34739;-86
2022/06/16 07:51:20;;;;;;;6.60;2.40;;;;;;;25.58;41.93;100655.09;5293887;33;33567;-85
2022/06/16 07:54:24;;;;;;;2.20;2.00;;;;;;;25.62;40.11;100659.78;5289663;33;34086;-86
2022/06/16 07:57:50;;;;;;;3.22;1.87;;;;;;;25.65;39.84;100661.19;5297814;33;34142;-85
2022/06/16 08:00:52;;;;;;;2.70;1.87;;;;;;;25.91;39.57;100657.41;5289774;33;33748;-85
2022/06/16 08:04:05;;;;;;;4.40;2.15;;;;;;;26.09;39.27;100655.22;5286224;33;34363;-86
2022/06/16 08:07:08;;;;;;;1.67;1.58;;;;;;;25.85;40.39;100647.47;5296932;33;34023;-86
2022/06/16 08:10:15;;;;;;;1.52;1.42;;;;;;;26.04;38.70;100652.50;5289890;33;33666;-85
2022/06/16 08:13:18;;;;;;;1.55;1.40;;;;;;;26.11;37.58;100644.75;5276363;33;32300;-85
2022/06/16 08:16:22;;;;;;;2.47;1.65;;;;;;;26.27;35.49;100642.81;5297968;33;33606;-85
2022/06/16 08:19:25;;;;;;;2.17;1.48;;;;;;;26.24;35.47;100642.28;5289531;33;34001;-85
2022/06/16 08:22:28;;;;;;;2.45;1.42;;;;;;;26.12;34.75;100632.59;5293555;33;34592;-86
2022/06/16 08:25:31;;;;;;;1.33;1.23;;;;;;;26.44;34.12;100640.59;5296405;33;34162;-85
2022/06/16 08:28:34;;;;;;;4.97;1.40;;;;;;;26.56;32.86;100638.44;5299815;33;33685;-86
2022/06/16 08:31:37;;;;;;;2.80;1.40;;;;;;;26.49;33.21;100645.31;5294038;33;32879;-86
2022/06/16 08:34:40;;;;;;;1.00;1.00;;;;;;;26.50;33.14;100644.22;5305885;33;34333;-86
2022/06/16 08:37:45;;;;;;;10.57;1.85;;;;;;;26.67;32.65;100651.09;5304852;33;34567;-86
2022/06/16 08:41:11;;;;;;;2.67;1.52;;;;;;;26.71;32.50;100654.16;5307164;33;34090;-85
2022/06/16 08:44:20;;;;;;;2.15;1.45;;;;;;;26.78;32.85;100657.44;5300944;33;35066;-86
2022/06/16 08:47:30;;;;;;;1.25;0.95;;;;;;;26.74;31.79;100650.00;5307552;33;34382;-86
2022/06/16 08:50:40;;;;;;;1.60;1.50;;;;;;;26.85;31.86;100649.72;5306498;33;34000;-85
2022/06/16 08:54:01;;;;;;;2.00;1.42;;;;;;;26.95;32.26;100646.09;5307230;33;34279;-90
2022/06/16 08:57:20;;;;;;;1.37;1.27;;;;;;;27.14;32.92;100646.28;5308114;33;33914;-84
2022/06/16 09:00:38;;;;;;;2.42;1.80;;;;;;;27.27;32.60;100644.91;5289480;33;34027;-86
2022/06/16 09:03:48;;;;;;;5.55;1.85;;;;;;;27.44;31.86;100652.84;5289548;33;34716;-84
2022/06/16 09:07:06;;;;;;;2.33;1.42;;;;;;;27.31;31.16;100654.28;5302856;33;33854;-84
2022/06/16 09:10:37;;;;;;;1.65;1.27;;;;;;;27.31;33.08;100649.56;5310098;33;33644;-84
2022/06/16 09:13:54;;;;;;;1.33;1.23;;;;;;;27.48;31.21;100651.16;5296720;33;34930;-86
2022/06/16 09:17:41;;;;;;;1.45;1.30;;;;;;;27.55;31.45;100637.84;5306840;33;34239;-86
2022/06/16 09:20:55;;;;;;;1.80;1.42;;;;;;;27.27;31.73;100642.97;5283141;33;34955;-87
2022/06/16 09:24:16;;;;;;;2.03;1.37;;;;;;;27.43;32.50;100637.34;5289582;33;34003;-86
2022/06/16 09:27:42;;;;;;;1.40;1.20;;;;;;;27.86;32.64;100638.53;5300187;33;33939;-86
2022/06/16 09:30:48;;;;;;;1.73;1.62;;;;;;;27.86;29.57;100632.16;5295749;33;34685;-86
2022/06/16 09:33:57;;;;;;;2.47;1.08;;;;;;;27.90;30.51;100620.22;5299416;33;33890;-86
2022/06/16 09:37:07;;;;;;;1.27;1.10;;;;;;;28.09;29.62;100617.59;5309421;33;33669;-86
2022/06/16 09:40:21;;;;;;;1.17;0.90;;;;;;;27.96;28.73;100623.78;5299186;33;32471;-86
2022/06/16 09:43:44;;;;;;;1.40;1.30;;;;;;;27.59;29.52;100619.59;5321491;33;34616;-86
2022/06/16 09:46:55;;;;;;;3.17;1.50;;;;;;;27.85;29.35;100619.44;5315112;33;35311;-84
2022/06/16 09:50:05;;;;;;;2.65;1.52;;;;;;;28.10;29.20;100616.47;5318835;33;32413;-84
2022/06/16 09:53:45;;;;;;;2.33;1.30;;;;;;;27.98;30.68;100613.25;5314282;33;34446;-86
2022/06/16 09:56:53;;;;;;;1.37;1.27;;;;;;;28.34;29.48;100612.94;5297244;33;34293;-85
2022/06/16 09:59:59;;;;;;;1.58;1.48;;;;;;;28.62;29.84;100609.38;5305136;33;33646;-85
2022/06/16 10:03:35;;;;;;;1.48;1.37;;;;;;;28.86;28.19;100614.94;5310716;33;34580;-85
2022/06/16 10:07:08;;;;;;;1.73;1.60;;;;;;;28.99;27.64;100620.88;5290458;33;34117;-84
2022/06/16 10:10:23;;;;;;;1.30;1.20;;;;;;;29.36;26.20;100609.91;5296461;33;32580;-84
2022/06/16 10:13:34;;;;;;;1.33;1.23;;;;;;;29.20;27.23;100607.66;5315176;33;34096;-84
2022/06/16 10:16:49;;;;;;;1.85;1.75;;;;;;;29.33;25.49;100609.69;5324632;33;34357;-85
2022/06/16 10:19:52;;;;;;;1.77;1.20;;;;;;;29.12;26.92;100607.19;5317071;33;35693;-84
2022/06/16 10:23:16;;;;;;;2.05;1.17;;;;;;;29.52;26.19;100599.44;5306303;33;34834;-85
2022/06/16 10:26:19;;;;;;;1.30;1.20;;;;;;;29.97;28.53;100599.87;5306734;33;34534;-89
2022/06/16 10:29:26;;;;;;;1.70;1.15;;;;;;;30.30;27.09;100599.09;5306074;33;34378;-88
2022/06/16 10:32:47;;;;;;;1.40;1.30;;;;;;;30.53;25.67;100598.12;5300785;33;34754;-85
2022/06/16 10:35:55;;;;;;;1.40;1.30;;;;;;;30.62;25.05;100593.50;5302156;33;33693;-85
2022/06/16 10:39:20;;;;;;;1.50;1.40;;;;;;;30.74;24.89;100604.09;5300828;33;33960;-85
2022/06/16 10:42:31;;;;;;;3.33;1.48;;;;;;;30.92;25.57;100594.06;5281381;33;32946;-84
2022/06/16 10:45:36;;;;;;;1.75;1.27;;;;;;;30.91;25.24;100601.56;5290100;33;34115;-84
2022/06/16 10:48:45;;;;;;;1.30;1.20;;;;;;;31.31;25.44;100604.62;5288000;33;32747;-85
2022/06/16 10:52:00;;;;;;;2.35;1.35;;;;;;;31.93;24.03;100601.31;5303200;33;33643;-85
2022/06/16 10:55:14;;;;;;;1.48;1.37;;;;;;;31.80;23.50;100593.81;5302906;33;33562;-85
2022/06/16 10:58:30;;;;;;;1.20;1.10;;;;;;;31.56;23.39;100599.66;5313083;33;34196;-85
2022/06/16 11:01:45;;;;;;;1.42;1.33;;;;;;;32.26;23.18;100592.69;5305372;33;33996;-85
2022/06/16 11:04:51;;;;;;;2.00;1.60;;;;;;;32.95;23.58;100586.66;5299546;33;32053;-85
2022/06/16 11:08:05;;;;;;;1.40;1.30;;;;;;;33.16;22.84;100593.28;5316827;33;35386;-84
2022/06/16 11:11:40;;;;;;;1.60;1.50;;;;;;;33.41;22.14;100586.13;5293741;33;34035;-85
2022/06/16 11:14:52;;;;;;;1.40;1.25;;;;;;;33.11;22.81;100576.72;5318748;33;33609;-85
2022/06/16 11:18:00;;;;;;;2.60;1.45;;;;;;;33.60;21.86;100571.88;5301782;33;33908;-85
2022/06/16 11:21:20;;;;;;;2.10;1.30;;;;;;;33.76;20.88;100557.44;5304664;33;33116;-85
2022/06/16 11:24:29;;;;;;;1.50;1.20;;;;;;;34.13;21.55;100555.91;5303629;33;34244;-85
2022/06/16 11:27:44;;;;;;;;;;;;;;;34.43;20.77;100551.22;5305403;33;34752;-85
2022/06/16 11:30:47;;;;;;;0.82;0.82;;;;;;;35.53;20.53;100544.84;5306330;33;34448;-85
2022/06/16 11:34:18;;;;;;;1.33;1.10;;;;;;;36.53;18.69;100535.28;5301622;33;35053;-85
2022/06/16 11:37:52;;;;;;;1.52;1.20;;;;;;;37.31;17.63;100538.16;5302981;33;35430;-84
2022/06/16 11:41:04;;;;;;;1.55;1.30;;;;;;;37.66;17.37;100536.44;5302898;33;34889;-85
2022/06/16 11:44:19;;;;;;;1.40;1.30;;;;;;;38.15;16.52;100523.34;5301032;33;34849;-90
2022/06/16 11:47:37;;;;;;;2.58;1.37;;;;;;;38.98;17.39;100522.22;5290096;33;34875;-85
2022/06/16 11:51:00;;;;;;;1.37;0.98;;;;;;;39.48;16.11;100518.91;5297282;33;33774;-85
2022/06/16 11:54:07;;;;;;;1.50;1.00;;;;;;;39.72;15.95;100515.75;5304029;33;33694;-85
2022/06/16 11:57:32;;;;;;;1.05;0.98;;;;;;;38.96;16.32;100516.16;5298979;33;35386;-85
2022/06/16 12:00:43;;;;;;;1.30;1.10;;;;;;;38.85;15.90;100506.66;5296332;33;33986;-85
2022/06/16 12:04:34;;;;;;;2.08;1.02;;;;;;;39.68;14.91;100500.78;5303893;33;33628;-85
2022/06/16 12:08:11;;;;;;;1.90;1.30;;;;;;;39.71;15.76;100496.41;5298610;33;34068;-85
2022/06/16 12:11:40;;;;;;;2.12;1.05;;;;;;;39.13;15.63;100486.75;5293185;33;33766;-86
2022/06/16 12:15:13;;;;;;;1.40;1.30;;;;;;;39.65;15.64;100488.25;5304759;33;33989;-85
2022/06/16 12:18:58;;;;;;;1.42;1.20;;;;;;;40.08;15.04;100483.44;5312024;33;33938;-84
2022/06/16 12:22:34;;;;;;;1.40;1.30;;;;;;;40.25;15.46;100484.97;5255388;33;33645;-85
2022/06/16 12:26:18;;;;;;;1.08;0.98;;;;;;;41.19;13.39;100490.88;5290205;33;33937;-85
2022/06/16 12:29:42;;;;;;;0.77;0.77;;;;;;;40.86;13.70;100493.59;5298759;33;34012;-85
2022/06/16 12:32:47;;;;;;;1.20;1.10;;;;;;;40.42;13.58;100485.63;5302802;33;34928;-85
2022/06/16 12:36:06;;;;;;;1.10;1.00;;;;;;;40.51;13.66;100497.47;5305416;33;33664;-85
2022/06/16 12:39:17;;;;;;;1.50;1.30;;;;;;;41.22;13.13;100495.75;5306078;33;34840;-85
2022/06/16 12:42:23;;;;;;;1.00;1.00;;;;;;;41.22;13.02;100507.06;5297649;33;34544;-84
2022/06/16 12:45:38;;;;;;;1.23;0.85;;;;;;;39.96;13.83;100486.47;5296777;33;35331;-84
2022/06/16 12:48:48;;;;;;;1.35;1.30;;;;;;;40.68;13.99;100488.50;5303618;33;33346;-85
2022/06/16 12:51:57;;;;;;;1.30;1.20;;;;;;;42.26;12.46;100477.09;5306380;33;33917;-85
2022/06/16 12:55:04;;;;;;;1.25;0.80;;;;;;;42.56;12.53;100474.13;5293172;33;34123;-84
2022/06/16 12:58:22;;;;;;;3.72;0.85;;;;;;;42.28;12.76;100456.91;5307085;33;35106;-85
2022/06/16 13:01:25;;;;;;;1.20;1.02;;;;;;;43.56;12.01;100453.19;5276687;33;33166;-85
2022/06/16 13:04:33;;;;;;;1.60;1.27;;;;;;;43.57;12.04;100454.84;5294227;33;34729;-84
2022/06/16 13:07:46;;;;;;;1.30;1.20;;;;;;;43.69;12.18;100440.28;5296514;33;80083;-85
2022/06/16 13:10:57;;;;;;;1.05;1.02;;;;;;;42.95;12.68;100439.59;5295598;33;33926;-89
2022/06/16 13:14:07;;;;;;;1.08;1.00;;;;;;;43.39;11.83;100427.22;5298161;33;34034;-85
2022/06/16 13:17:13;;;;;;;1.23;1.15;;;;;;;43.89;11.64;100420.84;5296972;33;35357;-84
2022/06/16 13:20:20;;;;;;;1.40;0.85;;;;;;;44.19;11.03;100414.78;5305756;33;34031;-85
2022/06/16 13:23:37;;;;;;;0.90;0.90;;;;;;;44.39;12.06;100426.56;5298207;33;33579;-85
2022/06/16 13:26:55;;;;;;;1.92;1.10;;;;;;;44.09;11.11;100418.44;5306532;33;34036;-85
2022/06/16 13:30:05;;;;;;;1.83;1.27;;;;;;;43.66;11.50;100409.87;5290127;33;32586;-85
2022/06/16 13:33:07;;;;;;;1.05;1.00;;;;;;;43.80;11.15;100409.09;5290356;33;34043;-84
2022/06/16 13:36:15;;;;;;;1.23;0.80;;;;;;;43.62;11.63;100417.59;5281388;33;32671;-85
2022/06/16 13:39:52;;;;;;;0.75;0.75;;;;;;;42.52;11.87;100416.66;5294867;33;34134;-84
2022/06/16 13:43:10;;;;;;;2.15;1.10;;;;;;;40.86;12.90;100417.34;5295647;33;34028;-84
2022/06/16 13:46:12;;;;;;;3.53;1.27;;;;;;;39.50;15.12;100412.28;5320470;33;35334;-84
2022/06/16 13:49:31;;;;;;;0.70;0.70;;;;;;;38.88;14.65;100398.94;5309222;33;35244;-85
2022/06/16 13:52:39;;;;;;;1.10;1.10;;;;;;;38.58;14.66;100395.00;5290888;33;35151;-84
2022/06/16 13:55:54;;;;;;;2.12;1.17;;;;;;;37.46;15.68;100391.34;5288113;33;34285;-84
2022/06/16 13:58:58;;;;;;;1.48;0.90;;;;;;;37.32;15.56;100396.56;5288523;33;34301;-84
2022/06/16 14:02:04;;;;;;;1.10;1.00;;;;;;;38.69;15.23;100390.44;5300751;33;34038;-84
2022/06/16 14:05:09;;;;;;;2.78;0.85;;;;;;;37.99;15.43;100383.56;5303013;33;35231;-84
2022/06/16 14:08:17;;;;;;;1.20;1.10;;;;;;;36.58;17.03;100396.78;5304903;33;34969;-85
2022/06/16 14:11:22;;;;;;;1.35;1.25;;;;;;;36.19;17.96;100398.34;5286955;33;33680;-84
2022/06/16 14:14:27;;;;;;;1.30;1.20;;;;;;;35.41;18.16;100405.59;5292090;33;33439;-85
2022/06/16 14:17:32;;;;;;;1.17;1.15;;;;;;;34.83;17.79;100385.03;5301638;33;34165;-84
2022/06/16 14:20:37;;;;;;;1.62;1.20;;;;;;;34.40;18.40;100383.31;5289487;33;34669;-84
2022/06/16 14:23:46;;;;;;;1.48;1.35;;;;;;;33.56;19.71;100377.44;5276963;33;32577;-84
2022/06/16 14:26:50;;;;;;;1.40;1.30;;;;;;;33.07;19.82;100374.84;5296123;33;33870;-84
2022/06/16 14:29:55;;;;;;;1.35;1.25;;;;;;;32.47;20.68;100365.28;5298553;33;33625;-84
2022/06/16 14:33:27;;;;;;;2.25;1.50;;;;;;;32.39;20.87;100370.81;5285208;33;33760;-83
2022/06/16 14:36:33;;;;;;;1.83;1.30;;;;;;;31.84;21.61;100364.53;5288860;33;34419;-84
2022/06/16 14:39:48;;;;;;;1.40;1.30;;;;;;;31.42;21.90;100351.25;5298755;33;34141;-85
2022/06/16 14:42:54;;;;;;;1.70;1.58;;;;;;;31.25;22.73;100357.50;5296986;33;34282;-84
2022/06/16 14:46:13;;;;;;;2.03;1.60;;;;;;;31.34;22.66;100339.72;5299282;33;34074;-85
2022/06/16 14:49:27;;;;;;;2.03;1.83;;;;;;;31.17;22.71;100345.16;5296500;33;33512;-87
2022/06/16 14:52:53;;;;;;;4.03;1.75;;;;;;;30.93;23.49;100343.50;5301924;33;35518;-86
2022/06/16 14:56:16;;;;;;;1.77;1.65;;;;;;;30.52;23.83;100340.03;5301566;33;34340;-84
2022/06/16 14:59:21;;;;;;;3.17;1.85;;;;;;;30.30;24.21;100332.44;5296303;33;34104;-85
2022/06/16 15:02:30;;;;;;;2.25;1.65;;;;;;;30.47;23.04;100336.22;5297023;33;34021;-84
2022/06/16 15:05:36;;;;;;;2.20;1.80;;;;;;;30.41;24.00;100331.09;5305738;33;34501;-85
2022/06/16 15:08:46;;;;;;;1.75;1.65;;;;;;;30.57;23.59;100334.34;5288113;33;33189;-84
2022/06/16 15:11:53;;;;;;;1.60;1.50;;;;;;;30.61;23.31;100340.94;5278594;33;32587;-84
2022/06/16 15:14:56;;;;;;;2.83;1.80;;;;;;;30.52;23.88;100334.47;5306627;33;34039;-84
2022/06/16 15:18:10;;;;;;;2.42;2.03;;;;;;;30.24;24.65;100327.00;5309483;33;33999;-84
2022/06/16 15:21:15;;;;;;;2.58;2.10;;;;;;;30.02;25.92;100319.38;5280963;33;33302;-85
2022/06/16 15:24:17;;;;;;;2.08;1.87;;;;;;;30.10;25.04;100319.78;5294011;33;32159;-84
2022/06/16 15:27:37;;;;;;;2.55;2.17;;;;;;;30.25;25.00;100325.06;5304399;33;33529;-85
2022/06/16 15:30:41;;;;;;;2.20;2.00;;;;;;;29.97;25.65;100325.03;5301358;33;34519;-84
2022/06/16 15:37:27;;;;;;;2.47;2.00;;;;;;;30.01;26.15;100322.47;5297572;33;34003;-84
2022/06/16 15:40:34;;;;;;;3.17;2.60;;;;;;;29.92;27.03;100311.25;5300735;33;33750;-85
2022/06/16 15:43:38;;;;;;;2.42;2.03;;;;;;;29.99;26.45;100311.69;5308987;33;36294;-85
2022/06/16 15:46:44;;;;;;;4.15;2.45;;;;;;;29.92;27.11;100316.81;5320960;33;35261;-84
2022/06/16 15:49:53;;;;;;;4.53;2.10;;;;;;;30.04;25.83;100319.06;5316564;33;33528;-84
2022/06/16 15:53:04;;;;;;;2.37;2.17;;;;;;;29.83;27.68;100313.12;5306487;33;34245;-84
2022/06/16 15:56:11;;;;;;;2.78;2.40;;;;;;;29.58;27.37;100323.56;5309431;33;34809;-84
2022/06/16 15:59:15;;;;;;;2.50;2.22;;;;;;;29.42;28.02;100324.16;5308102;33;34275;-85
2022/06/16 16:02:20;;;;;;;4.85;2.30;;;;;;;29.38;28.27;100329.47;5295969;33;34721;-85
2022/06/16 16:05:29;;;;;;;2.53;2.33;;;;;;;29.22;28.80;100323.41;5307093;33;33998;-86
2022/06/16 16:08:33;;;;;;;2.92;2.25;;;;;;;29.18;28.81;100313.22;5308108;33;33814;-84
2022/06/16 16:11:38;;;;;;;2.37;2.17;;;;;;;29.07;29.16;100309.78;5290271;33;34476;-84
2022/06/16 16:15:03;;;;;;;3.10;2.37;;;;;;;29.07;28.54;100307.81;5309541;33;34321;-86
2022/06/16 16:18:19;;;;;;;2.67;2.47;;;;;;;29.07;29.01;100299.50;5293381;33;34567;-85
2022/06/16 16:21:45;;;;;;;3.55;2.30;;;;;;;28.95;28.82;100301.91;5285563;33;33140;-84
2022/06/16 16:24:48;;;;;;;2.80;2.33;;;;;;;28.82;29.58;100302.69;5306624;33;35342;-86
2022/06/16 16:27:51;;;;;;;3.47;2.15;;;;;;;28.70;29.79;100303.97;5305604;33;33944;-85
2022/06/16 16:30:58;;;;;;;3.45;2.10;;;;;;;28.63;29.69;100305.47;5306197;33;33972;-85
2022/06/16 16:34:04;;;;;;;3.60;1.90;;;;;;;28.57;29.85;100299.19;5302212;33;34436;-89
2022/06/16 16:37:23;;;;;;;2.33;1.77;;;;;;;28.48;29.88;100301.78;5299616;33;34168;-86
2022/06/16 16:43:58;;;;;;;5.20;2.17;;;;;;;28.21;29.89;100296.06;5304884;33;33526;-84
2022/06/16 16:47:04;;;;;;;2.40;2.20;;;;;;;28.05;30.91;100292.66;5304340;33;33795;-85
2022/06/16 16:50:18;;;;;;;3.97;2.00;;;;;;;28.01;30.24;100289.69;5304890;33;34397;-85
2022/06/16 16:53:40;;;;;;;2.05;1.90;;;;;;;27.96;30.88;100295.31;5303707;33;33635;-84
2022/06/16 16:56:48;;;;;;;2.08;1.90;;;;;;;27.76;30.87;100295.50;5314168;33;34452;-84
2022/06/16 16:59:51;;;;;;;2.10;1.80;;;;;;;27.70;31.55;100296.66;5294455;33;32769;-84
2022/06/16 17:02:54;;;;;;;2.10;1.90;;;;;;;27.73;31.17;100296.94;5307181;33;34883;-84
2022/06/16 17:05:58;;;;;;;2.35;1.83;;;;;;;27.77;31.23;100297.16;5301064;33;33872;-84
2022/06/16 17:09:01;;;;;;;2.03;1.80;;;;;;;27.74;31.14;100290.25;5310187;33;34196;-86
2022/06/16 17:12:05;;;;;;;3.20;2.08;;;;;;;27.76;31.31;100290.81;5297414;33;35416;-84
2022/06/16 17:15:10;;;;;;;1.80;1.70;;;;;;;27.76;31.64;100295.50;5290415;33;32895;-85
2022/06/16 17:18:13;;;;;;;2.20;2.00;;;;;;;27.75;32.35;100305.72;5296124;33;32564;-85
2022/06/16 17:21:17;;;;;;;2.60;2.03;;;;;;;27.77;32.03;100303.50;5311859;33;34389;-85
2022/06/16 17:24:26;;;;;;;2.10;2.00;;;;;;;27.75;32.50;100316.78;5308875;33;33239;-85
2022/06/16 17:27:36;;;;;;;2.35;2.00;;;;;;;27.65;33.29;100319.69;5296332;33;32862;-85
2022/06/16 17:30:39;;;;;;;1.80;1.70;;;;;;;27.49;34.67;100329.25;5307088;33;34131;-86
2022/06/16 17:33:43;;;;;;;2.20;1.98;;;;;;;27.44;34.55;100329.31;5305689;33;35524;-88
2022/06/16 17:36:48;;;;;;;2.28;2.08;;;;;;;27.23;35.37;100335.06;5303256;33;34053;-89
2022/06/16 17:39:54;;;;;;;2.50;2.30;;;;;;;26.98;36.40;100335.22;5310131;33;34441;-88
2022/06/16 17:42:57;;;;;;;1.98;1.60;;;;;;;26.92;36.62;100335.25;5310483;33;33106;-85
2022/06/16 17:46:00;;;;;;;2.10;1.95;;;;;;;26.77;37.49;100346.41;5298118;33;34041;-85
2022/06/16 17:49:03;;;;;;;2.25;2.05;;;;;;;26.75;37.53;100351.41;5300947;33;33920;-84
2022/06/16 18:02:14;;;;;;;2.37;2.17;;;;;;;26.39;39.38;100357.09;5309131;33;34753;-84
2022/06/16 18:05:17;;;;;;;3.35;2.50;;;;;;;26.28;39.88;100358.25;5313706;33;34694;-84
2022/06/16 18:08:26;;;;;;;2.55;2.37;;;;;;;26.19;40.31;100358.00;5303979;33;34299;-84
2022/06/16 18:11:29;;;;;;;2.72;2.25;;;;;;;26.13;40.66;100355.56;5303309;33;34875;-84
2022/06/16 18:14:32;;;;;;;2.78;2.20;;;;;;;26.06;41.48;100346.75;5324716;33;34476;-84
2022/06/16 18:17:36;;;;;;;3.60;2.22;;;;;;;25.99;41.59;100352.56;5326693;33;34985;-85
2022/06/16 18:20:48;;;;;;;2.92;2.53;;;;;;;25.93;41.92;100359.22;5313915;33;34193;-85
2022/06/16 18:23:54;;;;;;;2.15;1.95;;;;;;;25.85;42.41;100357.84;5330575;33;34435;-85
2022/06/16 18:27:07;;;;;;;2.95;2.33;;;;;;;25.75;43.08;100364.19;5330981;33;35389;-85
2022/06/16 18:30:13;;;;;;;3.95;2.20;;;;;;;25.67;44.96;100358.41;5314940;33;34466;-84
2022/06/16 18:33:19;;;;;;;2.58;2.37;;;;;;;25.57;44.46;100356.50;5316754;33;33998;-85
2022/06/16 18:36:23;;;;;;;3.28;2.55;;;;;;;25.54;44.61;100363.41;5318561;33;34770;-85
2022/06/16 18:39:25;;;;;;;4.03;2.40;;;;;;;25.47;45.70;100362.84;5308481;33;34135;-84
2022/06/16 18:42:30;;;;;;;2.50;2.15;;;;;;;25.47;45.20;100375.81;5320484;33;34229;-87
2022/06/16 18:45:35;;;;;;;3.05;2.50;;;;;;;25.40;45.80;100389.87;5321672;33;34191;-88
2022/06/16 18:48:41;;;;;;;2.90;2.70;;;;;;;25.33;46.18;100389.31;5315296;33;34933;-86
2022/06/16 18:51:44;;;;;;;2.47;2.28;;;;;;;25.26;46.96;100394.28;5319386;33;34053;-85
2022/06/16 18:54:50;;;;;;;2.80;2.55;;;;;;;25.27;46.89;100401.44;5293521;33;33265;-84
2022/06/16 18:57:53;;;;;;;4.43;2.80;;;;;;;25.22;47.07;100399.53;5314189;33;33514;-85
2022/06/16 19:00:57;;;;;;;3.28;2.97;;;;;;;25.22;47.02;100390.44;5303812;33;32471;-85
2022/06/16 19:08:45;;;;;;;3.90;3.00;;;;;;;25.20;47.07;100398.16;5313050;33;34762;-85
2022/06/16 19:15:19;;;;;;;3.60;2.65;;;;;;;25.10;48.63;100421.81;5279344;33;32521;-90
